sensor_id;sensor_type;location;lat;lon;timestamp;P1;durP1;ratioP1;P2;durP2;ratioP2
59273;SDS011;45044;41.572;24.730;2022-10-26T00:01:20;17.15;;;6.95;;
59273;SDS011;45044;41.572;24.730;2022-10-26T00:03:47;16.88;;;6.68;;
59273;SDS011;45044;41.572;24.730;2022-10-26T00:06:15;18.10;;;8.80;;
59273;SDS011;45044;41.572;24.730;2022-10-26T00:08:43;19.38;;;8.57;;
59273;SDS011;45044;41.572;24.730;2022-10-26T00:11:11;13.52;;;6.93;;
59273;SDS011;45044;41.572;24.730;2022-10-26T00:13:39;13.57;;;6.18;;
59273;SDS011;45044;41.572;24.730;2022-10-26T00:16:10;15.90;;;7.35;;
59273;SDS011;45044;41.572;24.730;2022-10-26T00:18:40;16.17;;;7.70;;
59273;SDS011;45044;41.572;24.730;2022-10-26T00:21:08;13.48;;;5.30;;
59273;SDS011;45044;41.572;24.730;2022-10-26T00:23:36;14.32;;;5.20;;
59273;SDS011;45044;41.572;24.730;2022-10-26T00:26:03;15.43;;;5.45;;
59273;SDS011;45044;41.572;24.730;2022-10-26T00:28:31;12.43;;;5.20;;
59273;SDS011;45044;41.572;24.730;2022-10-26T00:31:02;13.55;;;5.32;;
59273;SDS011;45044;41.572;24.730;2022-10-26T00:33:30;11.52;;;5.25;;
59273;SDS011;45044;41.572;24.730;2022-10-26T00:36:00;13.43;;;5.10;;
59273;SDS011;45044;41.572;24.730;2022-10-26T00:38:26;13.32;;;5.43;;
59273;SDS011;45044;41.572;24.730;2022-10-26T00:40:53;13.63;;;6.50;;
59273;SDS011;45044;41.572;24.730;2022-10-26T00:45:47;12.52;;;5.75;;
59273;SDS011;45044;41.572;24.730;2022-10-26T00:48:31;13.05;;;6.00;;
59273;SDS011;45044;41.572;24.730;2022-10-26T00:51:05;18.60;;;9.13;;
59273;SDS011;45044;41.572;24.730;2022-10-26T00:56:05;16.40;;;7.07;;
59273;SDS011;45044;41.572;24.730;2022-10-26T00:58:33;12.38;;;4.97;;
59273;SDS011;45044;41.572;24.730;2022-10-26T01:01:01;14.77;;;6.93;;
59273;SDS011;45044;41.572;24.730;2022-10-26T01:03:28;17.25;;;7.28;;
59273;SDS011;45044;41.572;24.730;2022-10-26T01:05:57;12.00;;;6.20;;
59273;SDS011;45044;41.572;24.730;2022-10-26T01:08:24;14.57;;;5.95;;
59273;SDS011;45044;41.572;24.730;2022-10-26T01:10:53;15.10;;;6.28;;
59273;SDS011;45044;41.572;24.730;2022-10-26T01:13:22;13.60;;;5.85;;
59273;SDS011;45044;41.572;24.730;2022-10-26T01:23:43;13.95;;;5.55;;
59273;SDS011;45044;41.572;24.730;2022-10-26T01:26:37;11.90;;;5.32;;
59273;SDS011;45044;41.572;24.730;2022-10-26T01:31:57;13.00;;;4.53;;
59273;SDS011;45044;41.572;24.730;2022-10-26T01:34:33;15.27;;;6.63;;
59273;SDS011;45044;41.572;24.730;2022-10-26T01:37:09;15.85;;;7.88;;
59273;SDS011;45044;41.572;24.730;2022-10-26T01:39:41;16.13;;;7.22;;
59273;SDS011;45044;41.572;24.730;2022-10-26T01:42:20;21.45;;;10.45;;
59273;SDS011;45044;41.572;24.730;2022-10-26T01:44:50;14.68;;;6.03;;
59273;SDS011;45044;41.572;24.730;2022-10-26T01:47:22;14.75;;;7.03;;
59273;SDS011;45044;41.572;24.730;2022-10-26T01:49:51;16.80;;;8.25;;
59273;SDS011;45044;41.572;24.730;2022-10-26T01:52:20;19.63;;;7.47;;
59273;SDS011;45044;41.572;24.730;2022-10-26T01:54:48;19.00;;;7.25;;
59273;SDS011;45044;41.572;24.730;2022-10-26T01:57:16;14.40;;;6.13;;
59273;SDS011;45044;41.572;24.730;2022-10-26T02:11:45;16.17;;;8.07;;
59273;SDS011;45044;41.572;24.730;2022-10-26T02:13:49;14.65;;;6.93;;
59273;SDS011;45044;41.572;24.730;2022-10-26T02:25:06;15.95;;;6.72;;
59273;SDS011;45044;41.572;24.730;2022-10-26T02:27:37;17.17;;;7.07;;
59273;SDS011;45044;41.572;24.730;2022-10-26T02:30:08;16.83;;;7.78;;
59273;SDS011;45044;41.572;24.730;2022-10-26T02:32:37;14.15;;;6.10;;
59273;SDS011;45044;41.572;24.730;2022-10-26T02:35:08;17.00;;;7.13;;
59273;SDS011;45044;41.572;24.730;2022-10-26T02:37:35;19.15;;;7.25;;
59273;SDS011;45044;41.572;24.730;2022-10-26T02:40:05;19.50;;;7.47;;
59273;SDS011;45044;41.572;24.730;2022-10-26T02:42:36;15.73;;;7.50;;
59273;SDS011;45044;41.572;24.730;2022-10-26T02:45:06;14.23;;;7.00;;
59273;SDS011;45044;41.572;24.730;2022-10-26T02:47:36;14.65;;;7.50;;
59273;SDS011;45044;41.572;24.730;2022-10-26T02:50:03;18.50;;;7.70;;
59273;SDS011;45044;41.572;24.730;2022-10-26T02:57:54;18.88;;;9.40;;
59273;SDS011;45044;41.572;24.730;2022-10-26T03:00:25;18.67;;;7.90;;
59273;SDS011;45044;41.572;24.730;2022-10-26T03:02:52;14.05;;;7.00;;
59273;SDS011;45044;41.572;24.730;2022-10-26T03:05:26;12.65;;;6.32;;
59273;SDS011;45044;41.572;24.730;2022-10-26T03:07:55;13.30;;;6.63;;
59273;SDS011;45044;41.572;24.730;2022-10-26T03:10:22;12.30;;;6.03;;
59273;SDS011;45044;41.572;24.730;2022-10-26T03:12:48;17.83;;;9.68;;
59273;SDS011;45044;41.572;24.730;2022-10-26T03:15:16;20.90;;;12.50;;
59273;SDS011;45044;41.572;24.730;2022-10-26T03:17:43;24.00;;;13.13;;
59273;SDS011;45044;41.572;24.730;2022-10-26T03:20:10;24.35;;;12.90;;
59273;SDS011;45044;41.572;24.730;2022-10-26T03:22:37;22.60;;;11.07;;
59273;SDS011;45044;41.572;24.730;2022-10-26T03:25:03;23.10;;;13.60;;
59273;SDS011;45044;41.572;24.730;2022-10-26T03:27:31;21.50;;;10.88;;
59273;SDS011;45044;41.572;24.730;2022-10-26T03:29:57;21.27;;;9.65;;
59273;SDS011;45044;41.572;24.730;2022-10-26T03:32:24;22.05;;;10.82;;
59273;SDS011;45044;41.572;24.730;2022-10-26T03:34:51;21.20;;;11.80;;
59273;SDS011;45044;41.572;24.730;2022-10-26T03:37:17;39.40;;;20.33;;
59273;SDS011;45044;41.572;24.730;2022-10-26T03:39:44;34.05;;;17.40;;
59273;SDS011;45044;41.572;24.730;2022-10-26T03:42:11;39.30;;;17.88;;
59273;SDS011;45044;41.572;24.730;2022-10-26T03:44:38;29.85;;;15.95;;
59273;SDS011;45044;41.572;24.730;2022-10-26T03:47:04;32.25;;;16.52;;
59273;SDS011;45044;41.572;24.730;2022-10-26T03:49:31;32.00;;;17.63;;
59273;SDS011;45044;41.572;24.730;2022-10-26T03:51:58;28.33;;;14.35;;
59273;SDS011;45044;41.572;24.730;2022-10-26T03:54:24;26.10;;;13.77;;
59273;SDS011;45044;41.572;24.730;2022-10-26T03:56:51;27.17;;;14.23;;
59273;SDS011;45044;41.572;24.730;2022-10-26T03:59:20;21.98;;;12.02;;
59273;SDS011;45044;41.572;24.730;2022-10-26T04:01:47;22.80;;;11.40;;
59273;SDS011;45044;41.572;24.730;2022-10-26T04:04:20;18.45;;;11.35;;
59273;SDS011;45044;41.572;24.730;2022-10-26T04:06:47;20.30;;;9.98;;
59273;SDS011;45044;41.572;24.730;2022-10-26T04:09:14;20.25;;;11.55;;
59273;SDS011;45044;41.572;24.730;2022-10-26T04:11:40;19.63;;;10.93;;
59273;SDS011;45044;41.572;24.730;2022-10-26T04:14:07;19.60;;;9.50;;
59273;SDS011;45044;41.572;24.730;2022-10-26T04:16:34;19.45;;;11.02;;
59273;SDS011;45044;41.572;24.730;2022-10-26T04:19:00;19.67;;;11.95;;
59273;SDS011;45044;41.572;24.730;2022-10-26T04:21:27;18.10;;;10.15;;
59273;SDS011;45044;41.572;24.730;2022-10-26T04:23:54;20.30;;;10.77;;
59273;SDS011;45044;41.572;24.730;2022-10-26T04:26:20;22.35;;;12.82;;
59273;SDS011;45044;41.572;24.730;2022-10-26T04:28:47;24.13;;;13.55;;
59273;SDS011;45044;41.572;24.730;2022-10-26T04:31:14;18.95;;;10.32;;
59273;SDS011;45044;41.572;24.730;2022-10-26T04:33:41;21.70;;;11.20;;
59273;SDS011;45044;41.572;24.730;2022-10-26T04:36:07;23.55;;;13.38;;
59273;SDS011;45044;41.572;24.730;2022-10-26T04:38:34;23.83;;;14.20;;
59273;SDS011;45044;41.572;24.730;2022-10-26T04:41:01;22.13;;;14.20;;
59273;SDS011;45044;41.572;24.730;2022-10-26T04:43:28;24.25;;;13.65;;
59273;SDS011;45044;41.572;24.730;2022-10-26T04:45:55;24.67;;;13.00;;
59273;SDS011;45044;41.572;24.730;2022-10-26T04:48:23;23.33;;;12.32;;
59273;SDS011;45044;41.572;24.730;2022-10-26T04:50:50;25.13;;;14.20;;
59273;SDS011;45044;41.572;24.730;2022-10-26T04:53:17;30.73;;;16.67;;
59273;SDS011;45044;41.572;24.730;2022-10-26T04:55:43;97.43;;;56.35;;
59273;SDS011;45044;41.572;24.730;2022-10-26T04:58:10;91.07;;;57.65;;
59273;SDS011;45044;41.572;24.730;2022-10-26T05:00:37;65.30;;;46.08;;
59273;SDS011;45044;41.572;24.730;2022-10-26T05:03:05;56.33;;;40.35;;
59273;SDS011;45044;41.572;24.730;2022-10-26T05:05:33;39.13;;;24.35;;
59273;SDS011;45044;41.572;24.730;2022-10-26T05:08:02;44.33;;;28.77;;
59273;SDS011;45044;41.572;24.730;2022-10-26T05:10:29;44.55;;;27.58;;
59273;SDS011;45044;41.572;24.730;2022-10-26T05:12:56;34.58;;;23.42;;
59273;SDS011;45044;41.572;24.730;2022-10-26T05:15:26;37.95;;;22.17;;
59273;SDS011;45044;41.572;24.730;2022-10-26T05:17:54;30.75;;;18.77;;
59273;SDS011;45044;41.572;24.730;2022-10-26T05:20:26;29.52;;;18.48;;
59273;SDS011;45044;41.572;24.730;2022-10-26T05:22:56;28.25;;;16.52;;
59273;SDS011;45044;41.572;24.730;2022-10-26T05:25:27;27.65;;;16.20;;
59273;SDS011;45044;41.572;24.730;2022-10-26T05:28:01;30.63;;;15.65;;
59273;SDS011;45044;41.572;24.730;2022-10-26T05:30:30;28.55;;;16.20;;
59273;SDS011;45044;41.572;24.730;2022-10-26T05:32:57;27.73;;;16.98;;
59273;SDS011;45044;41.572;24.730;2022-10-26T05:35:26;28.52;;;16.55;;
59273;SDS011;45044;41.572;24.730;2022-10-26T05:37:53;32.92;;;18.02;;
59273;SDS011;45044;41.572;24.730;2022-10-26T05:40:20;28.83;;;17.45;;
59273;SDS011;45044;41.572;24.730;2022-10-26T05:42:47;31.63;;;16.55;;
59273;SDS011;45044;41.572;24.730;2022-10-26T05:45:14;24.52;;;15.38;;
59273;SDS011;45044;41.572;24.730;2022-10-26T05:47:43;29.77;;;16.08;;
59273;SDS011;45044;41.572;24.730;2022-10-26T05:50:12;30.05;;;17.70;;
59273;SDS011;45044;41.572;24.730;2022-10-26T05:52:39;31.75;;;17.23;;
59273;SDS011;45044;41.572;24.730;2022-10-26T05:55:08;23.83;;;17.08;;
59273;SDS011;45044;41.572;24.730;2022-10-26T05:57:36;32.13;;;18.17;;
59273;SDS011;45044;41.572;24.730;2022-10-26T06:00:06;25.88;;;15.73;;
59273;SDS011;45044;41.572;24.730;2022-10-26T06:05:08;34.58;;;20.05;;
59273;SDS011;45044;41.572;24.730;2022-10-26T06:07:38;28.42;;;17.52;;
59273;SDS011;45044;41.572;24.730;2022-10-26T06:10:06;42.85;;;25.20;;
59273;SDS011;45044;41.572;24.730;2022-10-26T06:12:33;26.63;;;18.48;;
59273;SDS011;45044;41.572;24.730;2022-10-26T06:15:00;29.83;;;18.58;;
59273;SDS011;45044;41.572;24.730;2022-10-26T06:28:22;30.70;;;17.45;;
59273;SDS011;45044;41.572;24.730;2022-10-26T06:30:57;32.58;;;18.15;;
59273;SDS011;45044;41.572;24.730;2022-10-26T06:33:24;31.63;;;16.92;;
59273;SDS011;45044;41.572;24.730;2022-10-26T06:38:48;22.95;;;16.05;;
59273;SDS011;45044;41.572;24.730;2022-10-26T06:41:19;36.10;;;18.95;;
59273;SDS011;45044;41.572;24.730;2022-10-26T06:43:47;39.38;;;24.00;;
59273;SDS011;45044;41.572;24.730;2022-10-26T06:51:37;30.75;;;20.73;;
59273;SDS011;45044;41.572;24.730;2022-10-26T06:59:27;24.08;;;15.68;;
59273;SDS011;45044;41.572;24.730;2022-10-26T07:01:58;17.85;;;8.85;;
59273;SDS011;45044;41.572;24.730;2022-10-26T07:04:30;26.55;;;12.63;;
59273;SDS011;45044;41.572;24.730;2022-10-26T07:06:57;27.95;;;14.77;;
59273;SDS011;45044;41.572;24.730;2022-10-26T07:09:24;27.98;;;17.25;;
59273;SDS011;45044;41.572;24.730;2022-10-26T07:11:50;22.75;;;15.25;;
59273;SDS011;45044;41.572;24.730;2022-10-26T07:14:17;26.92;;;16.45;;
59273;SDS011;45044;41.572;24.730;2022-10-26T07:16:44;23.73;;;15.00;;
59273;SDS011;45044;41.572;24.730;2022-10-26T07:19:10;20.30;;;13.38;;
59273;SDS011;45044;41.572;24.730;2022-10-26T07:21:37;16.65;;;10.35;;
59273;SDS011;45044;41.572;24.730;2022-10-26T07:24:04;21.52;;;11.68;;
59273;SDS011;45044;41.572;24.730;2022-10-26T07:26:31;19.88;;;12.82;;
59273;SDS011;45044;41.572;24.730;2022-10-26T07:28:57;20.75;;;12.70;;
59273;SDS011;45044;41.572;24.730;2022-10-26T07:31:24;23.08;;;12.05;;
59273;SDS011;45044;41.572;24.730;2022-10-26T07:33:54;22.27;;;12.90;;
59273;SDS011;45044;41.572;24.730;2022-10-26T07:36:21;16.85;;;11.40;;
59273;SDS011;45044;41.572;24.730;2022-10-26T07:38:51;22.73;;;11.43;;
59273;SDS011;45044;41.572;24.730;2022-10-26T07:41:19;20.88;;;10.70;;
59273;SDS011;45044;41.572;24.730;2022-10-26T07:43:45;19.92;;;10.98;;
59273;SDS011;45044;41.572;24.730;2022-10-26T07:46:14;16.15;;;10.00;;
59273;SDS011;45044;41.572;24.730;2022-10-26T07:48:41;17.10;;;8.93;;
59273;SDS011;45044;41.572;24.730;2022-10-26T07:51:07;17.35;;;8.90;;
59273;SDS011;45044;41.572;24.730;2022-10-26T07:53:34;16.15;;;7.25;;
59273;SDS011;45044;41.572;24.730;2022-10-26T07:56:01;14.60;;;5.45;;
59273;SDS011;45044;41.572;24.730;2022-10-26T07:58:29;14.27;;;5.45;;
59273;SDS011;45044;41.572;24.730;2022-10-26T08:00:56;13.80;;;6.07;;
59273;SDS011;45044;41.572;24.730;2022-10-26T08:03:23;14.60;;;6.47;;
59273;SDS011;45044;41.572;24.730;2022-10-26T08:05:50;16.10;;;6.22;;
59273;SDS011;45044;41.572;24.730;2022-10-26T08:08:19;14.50;;;5.18;;
59273;SDS011;45044;41.572;24.730;2022-10-26T08:10:46;11.45;;;5.20;;
59273;SDS011;45044;41.572;24.730;2022-10-26T08:13:13;11.55;;;5.05;;
59273;SDS011;45044;41.572;24.730;2022-10-26T08:15:40;12.30;;;4.70;;
59273;SDS011;45044;41.572;24.730;2022-10-26T08:18:07;15.48;;;5.13;;
59273;SDS011;45044;41.572;24.730;2022-10-26T08:20:34;10.70;;;4.20;;
59273;SDS011;45044;41.572;24.730;2022-10-26T08:23:01;15.55;;;5.03;;
59273;SDS011;45044;41.572;24.730;2022-10-26T08:25:31;10.15;;;4.05;;
59273;SDS011;45044;41.572;24.730;2022-10-26T08:28:02;10.07;;;3.72;;
59273;SDS011;45044;41.572;24.730;2022-10-26T08:30:29;10.00;;;4.53;;
59273;SDS011;45044;41.572;24.730;2022-10-26T08:33:06;14.20;;;4.72;;
59273;SDS011;45044;41.572;24.730;2022-10-26T08:35:33;9.80;;;3.25;;
59273;SDS011;45044;41.572;24.730;2022-10-26T08:38:00;13.10;;;3.85;;
59273;SDS011;45044;41.572;24.730;2022-10-26T08:40:29;8.32;;;3.40;;
59273;SDS011;45044;41.572;24.730;2022-10-26T08:43:20;10.18;;;3.47;;
59273;SDS011;45044;41.572;24.730;2022-10-26T08:45:50;11.02;;;4.13;;
59273;SDS011;45044;41.572;24.730;2022-10-26T08:48:25;11.10;;;3.22;;
59273;SDS011;45044;41.572;24.730;2022-10-26T08:51:00;11.85;;;2.90;;
59273;SDS011;45044;41.572;24.730;2022-10-26T08:53:55;11.00;;;3.17;;
59273;SDS011;45044;41.572;24.730;2022-10-26T08:56:22;10.30;;;2.90;;
59273;SDS011;45044;41.572;24.730;2022-10-26T08:58:56;7.95;;;3.35;;
59273;SDS011;45044;41.572;24.730;2022-10-26T09:01:29;14.40;;;3.88;;
59273;SDS011;45044;41.572;24.730;2022-10-26T09:03:57;29.73;;;26.70;;
59273;SDS011;45044;41.572;24.730;2022-10-26T09:11:56;8.80;;;2.50;;
59273;SDS011;45044;41.572;24.730;2022-10-26T09:14:42;92.88;;;60.92;;
59273;SDS011;45044;41.572;24.730;2022-10-26T09:17:28;24.23;;;13.25;;
59273;SDS011;45044;41.572;24.730;2022-10-26T09:25:32;12.25;;;4.28;;
59273;SDS011;45044;41.572;24.730;2022-10-26T09:28:06;9.35;;;3.75;;
59273;SDS011;45044;41.572;24.730;2022-10-26T09:30:43;8.57;;;3.13;;
59273;SDS011;45044;41.572;24.730;2022-10-26T09:33:19;9.75;;;2.50;;
59273;SDS011;45044;41.572;24.730;2022-10-26T09:35:50;9.48;;;2.58;;
59273;SDS011;45044;41.572;24.730;2022-10-26T09:46:14;11.05;;;3.13;;
59273;SDS011;45044;41.572;24.730;2022-10-26T09:48:50;15.40;;;4.03;;
59273;SDS011;45044;41.572;24.730;2022-10-26T09:51:22;9.40;;;2.92;;
59273;SDS011;45044;41.572;24.730;2022-10-26T09:53:49;10.13;;;3.28;;
59273;SDS011;45044;41.572;24.730;2022-10-26T09:56:15;9.50;;;3.05;;
59273;SDS011;45044;41.572;24.730;2022-10-26T09:58:45;14.63;;;4.15;;
59273;SDS011;45044;41.572;24.730;2022-10-26T10:01:20;8.18;;;2.22;;
59273;SDS011;45044;41.572;24.730;2022-10-26T10:03:48;9.45;;;2.55;;
59273;SDS011;45044;41.572;24.730;2022-10-26T10:09:06;11.60;;;3.30;;
59273;SDS011;45044;41.572;24.730;2022-10-26T10:11:37;12.00;;;4.03;;
59273;SDS011;45044;41.572;24.730;2022-10-26T10:14:07;11.25;;;3.35;;
59273;SDS011;45044;41.572;24.730;2022-10-26T10:16:40;10.82;;;2.90;;
59273;SDS011;45044;41.572;24.730;2022-10-26T10:19:49;12.50;;;3.22;;
59273;SDS011;45044;41.572;24.730;2022-10-26T10:27:22;15.30;;;4.30;;
59273;SDS011;45044;41.572;24.730;2022-10-26T10:29:51;14.90;;;5.75;;
59273;SDS011;45044;41.572;24.730;2022-10-26T10:32:29;11.07;;;3.58;;
59273;SDS011;45044;41.572;24.730;2022-10-26T10:35:21;14.50;;;7.30;;
59273;SDS011;45044;41.572;24.730;2022-10-26T10:37:49;16.77;;;7.28;;
59273;SDS011;45044;41.572;24.730;2022-10-26T10:40:20;15.00;;;5.97;;
59273;SDS011;45044;41.572;24.730;2022-10-26T10:42:50;14.48;;;4.80;;
59273;SDS011;45044;41.572;24.730;2022-10-26T10:45:26;11.73;;;5.82;;
59273;SDS011;45044;41.572;24.730;2022-10-26T10:50:28;14.85;;;4.40;;
59273;SDS011;45044;41.572;24.730;2022-10-26T11:01:26;13.95;;;4.47;;
59273;SDS011;45044;41.572;24.730;2022-10-26T11:07:02;11.88;;;3.97;;
59273;SDS011;45044;41.572;24.730;2022-10-26T11:09:32;9.55;;;3.72;;
59273;SDS011;45044;41.572;24.730;2022-10-26T11:12:08;10.77;;;5.50;;
59273;SDS011;45044;41.572;24.730;2022-10-26T11:14:44;8.55;;;3.60;;
59273;SDS011;45044;41.572;24.730;2022-10-26T11:17:20;11.45;;;4.40;;
59273;SDS011;45044;41.572;24.730;2022-10-26T11:22:31;9.80;;;3.97;;
59273;SDS011;45044;41.572;24.730;2022-10-26T11:25:19;10.27;;;3.40;;
59273;SDS011;45044;41.572;24.730;2022-10-26T11:27:57;10.70;;;4.53;;
59273;SDS011;45044;41.572;24.730;2022-10-26T11:30:28;13.00;;;4.07;;
59273;SDS011;45044;41.572;24.730;2022-10-26T11:33:03;9.85;;;3.83;;
59273;SDS011;45044;41.572;24.730;2022-10-26T11:38:16;11.85;;;5.35;;
59273;SDS011;45044;41.572;24.730;2022-10-26T11:41:11;10.32;;;5.15;;
59273;SDS011;45044;41.572;24.730;2022-10-26T11:43:47;12.80;;;4.57;;
59273;SDS011;45044;41.572;24.730;2022-10-26T11:46:17;9.73;;;3.72;;
59273;SDS011;45044;41.572;24.730;2022-10-26T11:54:19;12.50;;;5.03;;
59273;SDS011;45044;41.572;24.730;2022-10-26T11:56:57;13.07;;;5.60;;
59273;SDS011;45044;41.572;24.730;2022-10-26T11:59:27;11.05;;;4.38;;
59273;SDS011;45044;41.572;24.730;2022-10-26T12:02:04;9.65;;;4.25;;
59273;SDS011;45044;41.572;24.730;2022-10-26T12:04:37;9.07;;;4.47;;
59273;SDS011;45044;41.572;24.730;2022-10-26T12:07:07;11.75;;;4.68;;
59273;SDS011;45044;41.572;24.730;2022-10-26T12:09:42;9.30;;;3.60;;
59273;SDS011;45044;41.572;24.730;2022-10-26T12:17:57;11.07;;;4.63;;
59273;SDS011;45044;41.572;24.730;2022-10-26T12:23:33;9.95;;;4.75;;
59273;SDS011;45044;41.572;24.730;2022-10-26T12:33:58;9.75;;;4.85;;
59273;SDS011;45044;41.572;24.730;2022-10-26T12:39:31;9.77;;;4.28;;
59273;SDS011;45044;41.572;24.730;2022-10-26T12:44:32;11.48;;;3.80;;
59273;SDS011;45044;41.572;24.730;2022-10-26T12:46:59;9.77;;;4.45;;
59273;SDS011;45044;41.572;24.730;2022-10-26T12:52:38;7.93;;;3.28;;
59273;SDS011;45044;41.572;24.730;2022-10-26T13:01:15;10.85;;;4.15;;
59273;SDS011;45044;41.572;24.730;2022-10-26T13:07:05;11.45;;;4.50;;
59273;SDS011;45044;41.572;24.730;2022-10-26T13:09:36;13.73;;;5.38;;
59273;SDS011;45044;41.572;24.730;2022-10-26T13:12:03;12.48;;;3.97;;
59273;SDS011;45044;41.572;24.730;2022-10-26T13:14:32;12.15;;;4.65;;
59273;SDS011;45044;41.572;24.730;2022-10-26T13:17:05;8.55;;;3.53;;
59273;SDS011;45044;41.572;24.730;2022-10-26T13:19:44;11.00;;;4.45;;
59273;SDS011;45044;41.572;24.730;2022-10-26T13:22:14;10.40;;;4.65;;
59273;SDS011;45044;41.572;24.730;2022-10-26T13:24:50;9.90;;;4.47;;
59273;SDS011;45044;41.572;24.730;2022-10-26T13:32:28;43.78;;;10.07;;
59273;SDS011;45044;41.572;24.730;2022-10-26T13:35:04;9.15;;;4.68;;
59273;SDS011;45044;41.572;24.730;2022-10-26T13:37:36;14.82;;;5.10;;
59273;SDS011;45044;41.572;24.730;2022-10-26T13:40:13;9.10;;;3.95;;
59273;SDS011;45044;41.572;24.730;2022-10-26T13:42:44;11.52;;;4.85;;
59273;SDS011;45044;41.572;24.730;2022-10-26T13:45:21;10.00;;;3.83;;
59273;SDS011;45044;41.572;24.730;2022-10-26T13:48:03;8.73;;;3.88;;
59273;SDS011;45044;41.572;24.730;2022-10-26T13:50:35;9.88;;;4.85;;
59273;SDS011;45044;41.572;24.730;2022-10-26T13:53:07;9.75;;;5.05;;
59273;SDS011;45044;41.572;24.730;2022-10-26T14:01:02;13.27;;;4.45;;
59273;SDS011;45044;41.572;24.730;2022-10-26T14:03:37;10.82;;;4.35;;
59273;SDS011;45044;41.572;24.730;2022-10-26T14:06:47;10.05;;;5.25;;
59273;SDS011;45044;41.572;24.730;2022-10-26T14:08:59;10.77;;;4.38;;
59273;SDS011;45044;41.572;24.730;2022-10-26T14:11:56;10.55;;;4.70;;
59273;SDS011;45044;41.572;24.730;2022-10-26T14:14:32;9.73;;;4.70;;
59273;SDS011;45044;41.572;24.730;2022-10-26T14:17:01;11.10;;;4.68;;
59273;SDS011;45044;41.572;24.730;2022-10-26T14:19:33;12.07;;;5.07;;
59273;SDS011;45044;41.572;24.730;2022-10-26T14:22:02;10.68;;;5.43;;
59273;SDS011;45044;41.572;24.730;2022-10-26T14:24:31;10.77;;;5.50;;
59273;SDS011;45044;41.572;24.730;2022-10-26T14:27:17;11.85;;;4.63;;
59273;SDS011;45044;41.572;24.730;2022-10-26T14:29:46;11.60;;;4.40;;
59273;SDS011;45044;41.572;24.730;2022-10-26T14:32:33;14.32;;;5.60;;
59273;SDS011;45044;41.572;24.730;2022-10-26T14:35:02;12.98;;;5.22;;
59273;SDS011;45044;41.572;24.730;2022-10-26T14:40:04;10.27;;;5.68;;
59273;SDS011;45044;41.572;24.730;2022-10-26T14:42:37;14.48;;;5.53;;
59273;SDS011;45044;41.572;24.730;2022-10-26T14:45:18;12.82;;;6.75;;
59273;SDS011;45044;41.572;24.730;2022-10-26T14:48:14;20.08;;;12.70;;
59273;SDS011;45044;41.572;24.730;2022-10-26T14:53:28;11.40;;;5.95;;
59273;SDS011;45044;41.572;24.730;2022-10-26T14:56:17;10.88;;;5.07;;
59273;SDS011;45044;41.572;24.730;2022-10-26T14:58:48;11.93;;;5.45;;
59273;SDS011;45044;41.572;24.730;2022-10-26T15:01:23;12.88;;;6.78;;
59273;SDS011;45044;41.572;24.730;2022-10-26T15:04:01;13.13;;;5.82;;
59273;SDS011;45044;41.572;24.730;2022-10-26T15:06:30;9.43;;;4.00;;
59273;SDS011;45044;41.572;24.730;2022-10-26T15:08:59;8.13;;;3.83;;
59273;SDS011;45044;41.572;24.730;2022-10-26T15:11:30;6.70;;;3.78;;
59273;SDS011;45044;41.572;24.730;2022-10-26T15:13:59;9.25;;;4.95;;
59273;SDS011;45044;41.572;24.730;2022-10-26T15:16:27;20.48;;;8.10;;
59273;SDS011;45044;41.572;24.730;2022-10-26T15:19:07;21.05;;;9.38;;
59273;SDS011;45044;41.572;24.730;2022-10-26T15:21:37;27.08;;;16.63;;
59273;SDS011;45044;41.572;24.730;2022-10-26T15:26:46;13.50;;;6.97;;
59273;SDS011;45044;41.572;24.730;2022-10-26T15:32:34;36.15;;;25.75;;
59273;SDS011;45044;41.572;24.730;2022-10-26T15:37:37;18.17;;;13.25;;
59273;SDS011;45044;41.572;24.730;2022-10-26T15:40:04;26.00;;;20.63;;
59273;SDS011;45044;41.572;24.730;2022-10-26T15:42:34;24.42;;;20.85;;
59273;SDS011;45044;41.572;24.730;2022-10-26T15:45:04;20.85;;;14.52;;
59273;SDS011;45044;41.572;24.730;2022-10-26T15:47:42;31.35;;;23.30;;
59273;SDS011;45044;41.572;24.730;2022-10-26T15:50:16;110.00;;;74.78;;
59273;SDS011;45044;41.572;24.730;2022-10-26T15:52:47;21.58;;;14.85;;
59273;SDS011;45044;41.572;24.730;2022-10-26T15:55:15;56.90;;;43.65;;
59273;SDS011;45044;41.572;24.730;2022-10-26T15:57:43;11.35;;;7.90;;
59273;SDS011;45044;41.572;24.730;2022-10-26T16:00:13;35.72;;;23.20;;
59273;SDS011;45044;41.572;24.730;2022-10-26T16:02:42;42.72;;;33.03;;
59273;SDS011;45044;41.572;24.730;2022-10-26T16:05:14;187.20;;;90.47;;
59273;SDS011;45044;41.572;24.730;2022-10-26T16:07:42;93.15;;;50.72;;
59273;SDS011;45044;41.572;24.730;2022-10-26T16:10:13;76.13;;;38.28;;
59273;SDS011;45044;41.572;24.730;2022-10-26T16:12:43;61.83;;;32.95;;
59273;SDS011;45044;41.572;24.730;2022-10-26T16:15:14;18.25;;;10.52;;
59273;SDS011;45044;41.572;24.730;2022-10-26T16:20:30;32.50;;;22.88;;
59273;SDS011;45044;41.572;24.730;2022-10-26T16:22:57;35.25;;;25.40;;
59273;SDS011;45044;41.572;24.730;2022-10-26T16:25:27;24.42;;;16.35;;
59273;SDS011;45044;41.572;24.730;2022-10-26T16:27:53;27.75;;;18.85;;
59273;SDS011;45044;41.572;24.730;2022-10-26T16:30:21;37.45;;;20.88;;
59273;SDS011;45044;41.572;24.730;2022-10-26T16:32:54;47.63;;;27.60;;
59273;SDS011;45044;41.572;24.730;2022-10-26T16:35:21;42.13;;;23.70;;
59273;SDS011;45044;41.572;24.730;2022-10-26T16:37:48;43.83;;;24.17;;
59273;SDS011;45044;41.572;24.730;2022-10-26T16:40:14;46.42;;;29.88;;
59273;SDS011;45044;41.572;24.730;2022-10-26T16:42:41;42.88;;;27.17;;
59273;SDS011;45044;41.572;24.730;2022-10-26T16:45:13;37.08;;;26.85;;
59273;SDS011;45044;41.572;24.730;2022-10-26T16:47:40;54.10;;;42.72;;
59273;SDS011;45044;41.572;24.730;2022-10-26T16:50:09;63.90;;;43.92;;
59273;SDS011;45044;41.572;24.730;2022-10-26T16:52:37;49.55;;;39.80;;
59273;SDS011;45044;41.572;24.730;2022-10-26T16:55:05;46.08;;;34.08;;
59273;SDS011;45044;41.572;24.730;2022-10-26T16:57:34;48.55;;;37.20;;
59273;SDS011;45044;41.572;24.730;2022-10-26T17:00:01;52.47;;;35.95;;
59273;SDS011;45044;41.572;24.730;2022-10-26T17:02:29;54.90;;;41.85;;
59273;SDS011;45044;41.572;24.730;2022-10-26T17:04:56;159.00;;;120.72;;
59273;SDS011;45044;41.572;24.730;2022-10-26T17:07:26;111.80;;;90.72;;
59273;SDS011;45044;41.572;24.730;2022-10-26T17:09:53;44.90;;;32.80;;
59273;SDS011;45044;41.572;24.730;2022-10-26T17:12:20;49.22;;;33.65;;
59273;SDS011;45044;41.572;24.730;2022-10-26T17:14:47;40.25;;;32.30;;
59273;SDS011;45044;41.572;24.730;2022-10-26T17:17:14;44.13;;;33.08;;
59273;SDS011;45044;41.572;24.730;2022-10-26T17:19:40;39.88;;;32.58;;
59273;SDS011;45044;41.572;24.730;2022-10-26T17:22:07;101.65;;;69.75;;
59273;SDS011;45044;41.572;24.730;2022-10-26T17:24:34;55.90;;;40.90;;
59273;SDS011;45044;41.572;24.730;2022-10-26T17:27:01;53.00;;;40.40;;
59273;SDS011;45044;41.572;24.730;2022-10-26T17:29:28;37.80;;;25.85;;
59273;SDS011;45044;41.572;24.730;2022-10-26T17:31:55;34.95;;;25.42;;
59273;SDS011;45044;41.572;24.730;2022-10-26T17:34:22;38.47;;;27.35;;
59273;SDS011;45044;41.572;24.730;2022-10-26T17:36:48;34.95;;;25.83;;